sensor_id;sensor_type;location;lat;lon;timestamp;P1;durP1;ratioP1;P2;durP2;ratioP2
44480;SDS011;30184;42.018;23.670;2022-09-13T00:01:50;15.57;;;11.15;;
44480;SDS011;30184;42.018;23.670;2022-09-13T00:04:19;21.38;;;11.57;;
44480;SDS011;30184;42.018;23.670;2022-09-13T00:06:48;17.00;;;11.02;;
44480;SDS011;30184;42.018;23.670;2022-09-13T00:09:17;13.85;;;9.55;;
44480;SDS011;30184;42.018;23.670;2022-09-13T00:11:46;13.88;;;9.93;;
44480;SDS011;30184;42.018;23.670;2022-09-13T00:14:15;18.35;;;10.80;;
44480;SDS011;30184;42.018;23.670;2022-09-13T00:16:44;15.07;;;10.38;;
44480;SDS011;30184;42.018;23.670;2022-09-13T00:19:14;19.00;;;10.73;;
44480;SDS011;30184;42.018;23.670;2022-09-13T00:21:43;13.82;;;10.80;;
44480;SDS011;30184;42.018;23.670;2022-09-13T00:24:12;15.48;;;10.38;;
44480;SDS011;30184;42.018;23.670;2022-09-13T00:26:41;14.00;;;10.65;;
44480;SDS011;30184;42.018;23.670;2022-09-13T00:29:10;13.25;;;10.20;;
44480;SDS011;30184;42.018;23.670;2022-09-13T00:31:39;18.08;;;11.05;;
44480;SDS011;30184;42.018;23.670;2022-09-13T00:34:08;15.65;;;11.10;;
44480;SDS011;30184;42.018;23.670;2022-09-13T00:36:38;22.40;;;11.15;;
44480;SDS011;30184;42.018;23.670;2022-09-13T00:39:07;13.68;;;10.55;;
44480;SDS011;30184;42.018;23.670;2022-09-13T00:41:37;15.02;;;10.93;;
44480;SDS011;30184;42.018;23.670;2022-09-13T00:47:08;16.08;;;10.32;;
44480;SDS011;30184;42.018;23.670;2022-09-13T00:49:40;14.38;;;9.75;;
44480;SDS011;30184;42.018;23.670;2022-09-13T00:52:12;15.38;;;10.27;;
44480;SDS011;30184;42.018;23.670;2022-09-13T00:54:46;20.73;;;11.07;;
44480;SDS011;30184;42.018;23.670;2022-09-13T00:57:21;14.98;;;10.57;;
44480;SDS011;30184;42.018;23.670;2022-09-13T00:59:52;16.08;;;10.38;;
44480;SDS011;30184;42.018;23.670;2022-09-13T01:02:30;18.85;;;10.57;;
44480;SDS011;30184;42.018;23.670;2022-09-13T01:04:59;15.18;;;10.18;;
44480;SDS011;30184;42.018;23.670;2022-09-13T01:07:31;13.85;;;9.88;;
44480;SDS011;30184;42.018;23.670;2022-09-13T01:10:01;20.77;;;10.35;;
44480;SDS011;30184;42.018;23.670;2022-09-13T01:12:34;14.00;;;9.05;;
44480;SDS011;30184;42.018;23.670;2022-09-13T01:15:10;14.10;;;9.63;;
44480;SDS011;30184;42.018;23.670;2022-09-13T01:17:39;15.02;;;10.52;;
44480;SDS011;30184;42.018;23.670;2022-09-13T01:20:09;14.98;;;10.55;;
44480;SDS011;30184;42.018;23.670;2022-09-13T01:26:09;14.98;;;10.00;;
44480;SDS011;30184;42.018;23.670;2022-09-13T01:29:08;19.00;;;10.57;;
44480;SDS011;30184;42.018;23.670;2022-09-13T01:32:06;17.00;;;11.50;;
44480;SDS011;30184;42.018;23.670;2022-09-13T01:34:49;16.33;;;11.13;;
44480;SDS011;30184;42.018;23.670;2022-09-13T01:37:35;14.20;;;9.70;;
44480;SDS011;30184;42.018;23.670;2022-09-13T01:40:15;14.45;;;10.63;;
44480;SDS011;30184;42.018;23.670;2022-09-13T01:45:56;15.60;;;11.20;;
44480;SDS011;30184;42.018;23.670;2022-09-13T01:48:35;14.65;;;10.35;;
44480;SDS011;30184;42.018;23.670;2022-09-13T01:51:19;14.98;;;10.30;;
44480;SDS011;30184;42.018;23.670;2022-09-13T01:53:57;15.70;;;10.57;;
44480;SDS011;30184;42.018;23.670;2022-09-13T01:56:41;22.52;;;10.88;;
44480;SDS011;30184;42.018;23.670;2022-09-13T01:59:15;17.33;;;10.43;;
44480;SDS011;30184;42.018;23.670;2022-09-13T02:01:50;17.42;;;11.07;;
44480;SDS011;30184;42.018;23.670;2022-09-13T02:04:26;17.52;;;11.30;;
44480;SDS011;30184;42.018;23.670;2022-09-13T02:07:03;17.40;;;11.55;;
44480;SDS011;30184;42.018;23.670;2022-09-13T02:09:41;18.48;;;11.32;;
44480;SDS011;30184;42.018;23.670;2022-09-13T02:12:15;16.58;;;11.65;;
44480;SDS011;30184;42.018;23.670;2022-09-13T02:14:50;15.13;;;10.90;;
44480;SDS011;30184;42.018;23.670;2022-09-13T02:17:25;13.80;;;10.50;;
44480;SDS011;30184;42.018;23.670;2022-09-13T02:19:59;15.80;;;10.98;;
44480;SDS011;30184;42.018;23.670;2022-09-13T02:22:31;14.43;;;11.13;;
44480;SDS011;30184;42.018;23.670;2022-09-13T02:25:05;14.65;;;10.73;;
44480;SDS011;30184;42.018;23.670;2022-09-13T02:27:37;13.90;;;9.93;;
44480;SDS011;30184;42.018;23.670;2022-09-13T02:30:12;17.20;;;10.98;;
44480;SDS011;30184;42.018;23.670;2022-09-13T02:32:44;15.80;;;10.65;;
44480;SDS011;30184;42.018;23.670;2022-09-13T02:35:21;17.35;;;11.23;;
44480;SDS011;30184;42.018;23.670;2022-09-13T02:37:56;13.07;;;9.77;;
44480;SDS011;30184;42.018;23.670;2022-09-13T02:40:30;13.68;;;10.27;;
44480;SDS011;30184;42.018;23.670;2022-09-13T02:43:09;19.67;;;10.80;;
44480;SDS011;30184;42.018;23.670;2022-09-13T02:45:44;15.65;;;10.65;;
44480;SDS011;30184;42.018;23.670;2022-09-13T02:48:18;14.98;;;10.48;;
44480;SDS011;30184;42.018;23.670;2022-09-13T02:50:57;18.23;;;10.68;;
44480;SDS011;30184;42.018;23.670;2022-09-13T02:53:33;13.82;;;10.27;;
44480;SDS011;30184;42.018;23.670;2022-09-13T02:56:11;18.88;;;9.73;;
44480;SDS011;30184;42.018;23.670;2022-09-13T02:58:49;14.82;;;10.60;;
44480;SDS011;30184;42.018;23.670;2022-09-13T03:01:25;14.30;;;10.18;;
44480;SDS011;30184;42.018;23.670;2022-09-13T03:03:55;16.73;;;10.73;;
44480;SDS011;30184;42.018;23.670;2022-09-13T03:06:26;14.45;;;10.82;;
44480;SDS011;30184;42.018;23.670;2022-09-13T03:08:56;16.13;;;10.75;;
44480;SDS011;30184;42.018;23.670;2022-09-13T03:11:34;14.77;;;10.52;;
44480;SDS011;30184;42.018;23.670;2022-09-13T03:14:17;12.95;;;9.55;;
44480;SDS011;30184;42.018;23.670;2022-09-13T03:16:58;14.85;;;11.02;;
44480;SDS011;30184;42.018;23.670;2022-09-13T03:19:38;13.32;;;9.82;;
44480;SDS011;30184;42.018;23.670;2022-09-13T03:22:26;16.60;;;10.32;;
44480;SDS011;30184;42.018;23.670;2022-09-13T03:25:25;15.40;;;10.07;;
44480;SDS011;30184;42.018;23.670;2022-09-13T03:28:05;13.80;;;10.10;;
44480;SDS011;30184;42.018;23.670;2022-09-13T03:30:49;19.80;;;10.70;;
44480;SDS011;30184;42.018;23.670;2022-09-13T03:33:25;15.40;;;10.98;;
44480;SDS011;30184;42.018;23.670;2022-09-13T03:36:02;13.85;;;9.85;;
44480;SDS011;30184;42.018;23.670;2022-09-13T03:38:41;17.42;;;10.05;;
44480;SDS011;30184;42.018;23.670;2022-09-13T03:41:15;15.60;;;10.87;;
44480;SDS011;30184;42.018;23.670;2022-09-13T03:43:51;14.13;;;10.20;;
44480;SDS011;30184;42.018;23.670;2022-09-13T03:46:24;15.18;;;10.20;;
44480;SDS011;30184;42.018;23.670;2022-09-13T03:48:57;15.30;;;10.65;;
44480;SDS011;30184;42.018;23.670;2022-09-13T03:51:30;14.77;;;10.70;;
44480;SDS011;30184;42.018;23.670;2022-09-13T03:54:02;17.70;;;11.32;;
44480;SDS011;30184;42.018;23.670;2022-09-13T03:56:35;17.00;;;11.40;;
44480;SDS011;30184;42.018;23.670;2022-09-13T03:59:04;14.25;;;10.93;;
44480;SDS011;30184;42.018;23.670;2022-09-13T04:01:33;14.93;;;10.88;;
44480;SDS011;30184;42.018;23.670;2022-09-13T04:04:02;17.33;;;10.38;;
44480;SDS011;30184;42.018;23.670;2022-09-13T04:06:31;16.23;;;11.60;;
44480;SDS011;30184;42.018;23.670;2022-09-13T04:09:00;16.42;;;9.30;;
44480;SDS011;30184;42.018;23.670;2022-09-13T04:11:30;15.48;;;10.20;;
44480;SDS011;30184;42.018;23.670;2022-09-13T04:13:59;14.70;;;10.68;;
44480;SDS011;30184;42.018;23.670;2022-09-13T04:16:29;14.48;;;10.52;;
44480;SDS011;30184;42.018;23.670;2022-09-13T04:18:58;15.50;;;10.25;;
44480;SDS011;30184;42.018;23.670;2022-09-13T04:21:28;15.80;;;10.63;;
44480;SDS011;30184;42.018;23.670;2022-09-13T04:23:57;19.17;;;11.32;;
44480;SDS011;30184;42.018;23.670;2022-09-13T04:26:26;16.98;;;11.18;;
44480;SDS011;30184;42.018;23.670;2022-09-13T04:28:56;27.60;;;11.27;;
44480;SDS011;30184;42.018;23.670;2022-09-13T04:31:25;17.02;;;10.52;;
44480;SDS011;30184;42.018;23.670;2022-09-13T04:33:55;15.02;;;10.30;;
44480;SDS011;30184;42.018;23.670;2022-09-13T04:36:24;24.67;;;13.32;;
44480;SDS011;30184;42.018;23.670;2022-09-13T04:38:54;16.50;;;12.73;;
44480;SDS011;30184;42.018;23.670;2022-09-13T04:41:23;18.58;;;13.73;;
44480;SDS011;30184;42.018;23.670;2022-09-13T04:43:52;18.08;;;9.77;;
44480;SDS011;30184;42.018;23.670;2022-09-13T04:46:23;13.60;;;9.93;;
44480;SDS011;30184;42.018;23.670;2022-09-13T04:48:52;15.68;;;10.15;;
44480;SDS011;30184;42.018;23.670;2022-09-13T04:51:21;15.02;;;10.73;;
44480;SDS011;30184;42.018;23.670;2022-09-13T04:53:51;13.13;;;9.43;;
44480;SDS011;30184;42.018;23.670;2022-09-13T04:56:21;17.88;;;9.90;;
44480;SDS011;30184;42.018;23.670;2022-09-13T04:58:52;19.35;;;9.80;;
44480;SDS011;30184;42.018;23.670;2022-09-13T05:01:24;14.93;;;10.88;;
44480;SDS011;30184;42.018;23.670;2022-09-13T05:03:53;17.20;;;11.38;;
44480;SDS011;30184;42.018;23.670;2022-09-13T05:06:23;14.95;;;9.73;;
44480;SDS011;30184;42.018;23.670;2022-09-13T05:08:52;15.00;;;9.50;;
44480;SDS011;30184;42.018;23.670;2022-09-13T05:11:25;15.65;;;10.40;;
44480;SDS011;30184;42.018;23.670;2022-09-13T05:13:56;23.45;;;15.32;;
44480;SDS011;30184;42.018;23.670;2022-09-13T05:16:28;23.27;;;14.75;;
44480;SDS011;30184;42.018;23.670;2022-09-13T05:18:58;14.55;;;10.02;;
44480;SDS011;30184;42.018;23.670;2022-09-13T05:21:28;17.02;;;10.30;;
44480;SDS011;30184;42.018;23.670;2022-09-13T05:23:58;16.85;;;10.75;;
44480;SDS011;30184;42.018;23.670;2022-09-13T05:26:28;14.43;;;9.52;;
44480;SDS011;30184;42.018;23.670;2022-09-13T05:28:58;11.00;;;8.43;;
44480;SDS011;30184;42.018;23.670;2022-09-13T05:31:29;17.52;;;10.25;;
44480;SDS011;30184;42.018;23.670;2022-09-13T05:34:01;16.05;;;10.43;;
44480;SDS011;30184;42.018;23.670;2022-09-13T05:36:31;12.88;;;10.00;;
44480;SDS011;30184;42.018;23.670;2022-09-13T05:39:00;16.98;;;11.60;;
44480;SDS011;30184;42.018;23.670;2022-09-13T05:41:50;25.08;;;10.88;;
44480;SDS011;30184;42.018;23.670;2022-09-13T05:44:19;31.42;;;16.20;;
44480;SDS011;30184;42.018;23.670;2022-09-13T05:46:49;27.90;;;15.90;;
44480;SDS011;30184;42.018;23.670;2022-09-13T05:49:18;39.92;;;13.20;;
44480;SDS011;30184;42.018;23.670;2022-09-13T05:51:47;40.90;;;14.13;;
44480;SDS011;30184;42.018;23.670;2022-09-13T05:54:16;26.50;;;10.65;;
44480;SDS011;30184;42.018;23.670;2022-09-13T05:56:45;45.80;;;9.57;;
44480;SDS011;30184;42.018;23.670;2022-09-13T05:59:14;20.83;;;13.48;;
44480;SDS011;30184;42.018;23.670;2022-09-13T06:01:43;15.13;;;11.30;;
44480;SDS011;30184;42.018;23.670;2022-09-13T06:04:14;14.20;;;12.32;;
44480;SDS011;30184;42.018;23.670;2022-09-13T06:06:45;17.17;;;11.95;;
44480;SDS011;30184;42.018;23.670;2022-09-13T06:09:14;19.08;;;9.55;;
44480;SDS011;30184;42.018;23.670;2022-09-13T06:11:44;13.55;;;10.40;;
44480;SDS011;30184;42.018;23.670;2022-09-13T06:14:13;36.28;;;18.85;;
44480;SDS011;30184;42.018;23.670;2022-09-13T06:16:42;34.55;;;18.42;;
44480;SDS011;30184;42.018;23.670;2022-09-13T06:19:11;23.27;;;12.52;;
44480;SDS011;30184;42.018;23.670;2022-09-13T06:21:42;16.77;;;9.80;;
44480;SDS011;30184;42.018;23.670;2022-09-13T06:24:11;12.70;;;8.32;;
44480;SDS011;30184;42.018;23.670;2022-09-13T06:26:40;16.15;;;10.30;;
44480;SDS011;30184;42.018;23.670;2022-09-13T06:29:09;11.77;;;8.80;;
44480;SDS011;30184;42.018;23.670;2022-09-13T06:31:39;9.55;;;7.03;;
44480;SDS011;30184;42.018;23.670;2022-09-13T06:34:11;7.50;;;6.07;;
44480;SDS011;30184;42.018;23.670;2022-09-13T06:36:43;13.05;;;8.57;;
44480;SDS011;30184;42.018;23.670;2022-09-13T06:39:12;12.45;;;7.30;;
44480;SDS011;30184;42.018;23.670;2022-09-13T06:41:41;7.85;;;6.43;;
44480;SDS011;30184;42.018;23.670;2022-09-13T06:44:10;25.30;;;14.98;;
44480;SDS011;30184;42.018;23.670;2022-09-13T06:46:40;86.85;;;25.73;;
44480;SDS011;30184;42.018;23.670;2022-09-13T06:49:09;72.32;;;17.27;;
44480;SDS011;30184;42.018;23.670;2022-09-13T06:51:38;13.77;;;7.03;;
44480;SDS011;30184;42.018;23.670;2022-09-13T06:54:08;91.07;;;10.35;;
44480;SDS011;30184;42.018;23.670;2022-09-13T06:56:37;9.13;;;5.68;;
44480;SDS011;30184;42.018;23.670;2022-09-13T06:59:08;20.52;;;7.25;;
44480;SDS011;30184;42.018;23.670;2022-09-13T07:01:38;17.55;;;8.02;;
44480;SDS011;30184;42.018;23.670;2022-09-13T07:04:08;21.63;;;11.73;;
44480;SDS011;30184;42.018;23.670;2022-09-13T07:06:39;8.55;;;5.50;;
44480;SDS011;30184;42.018;23.670;2022-09-13T07:09:12;12.93;;;7.82;;
44480;SDS011;30184;42.018;23.670;2022-09-13T07:11:43;19.35;;;10.07;;
44480;SDS011;30184;42.018;23.670;2022-09-13T07:14:15;5.95;;;4.50;;
44480;SDS011;30184;42.018;23.670;2022-09-13T07:16:45;12.30;;;6.10;;
44480;SDS011;30184;42.018;23.670;2022-09-13T07:19:15;7.88;;;5.22;;
44480;SDS011;30184;42.018;23.670;2022-09-13T07:21:46;23.60;;;7.20;;
44480;SDS011;30184;42.018;23.670;2022-09-13T07:24:17;5.95;;;4.22;;
44480;SDS011;30184;42.018;23.670;2022-09-13T07:26:48;5.80;;;3.63;;
44480;SDS011;30184;42.018;23.670;2022-09-13T07:29:18;4.70;;;3.70;;
44480;SDS011;30184;42.018;23.670;2022-09-13T07:31:49;5.03;;;3.38;;
44480;SDS011;30184;42.018;23.670;2022-09-13T07:34:19;8.68;;;4.18;;
44480;SDS011;30184;42.018;23.670;2022-09-13T07:36:49;7.32;;;3.70;;
44480;SDS011;30184;42.018;23.670;2022-09-13T07:39:20;6.35;;;3.75;;
44480;SDS011;30184;42.018;23.670;2022-09-13T07:41:49;5.35;;;4.32;;
44480;SDS011;30184;42.018;23.670;2022-09-13T07:44:19;7.75;;;4.47;;
44480;SDS011;30184;42.018;23.670;2022-09-13T07:46:49;20.65;;;6.05;;
44480;SDS011;30184;42.018;23.670;2022-09-13T07:49:18;10.52;;;4.20;;
44480;SDS011;30184;42.018;23.670;2022-09-13T07:51:50;7.07;;;4.40;;
44480;SDS011;30184;42.018;23.670;2022-09-13T07:54:20;5.40;;;4.32;;
44480;SDS011;30184;42.018;23.670;2022-09-13T07:56:49;5.10;;;3.95;;
44480;SDS011;30184;42.018;23.670;2022-09-13T07:59:18;9.18;;;4.28;;
44480;SDS011;30184;42.018;23.670;2022-09-13T08:01:47;9.77;;;5.40;;
44480;SDS011;30184;42.018;23.670;2022-09-13T08:04:19;6.90;;;4.80;;
44480;SDS011;30184;42.018;23.670;2022-09-13T08:06:52;6.25;;;4.25;;
44480;SDS011;30184;42.018;23.670;2022-09-13T08:09:23;5.13;;;4.07;;
44480;SDS011;30184;42.018;23.670;2022-09-13T08:11:52;10.45;;;4.97;;
44480;SDS011;30184;42.018;23.670;2022-09-13T08:14:21;6.93;;;3.72;;
44480;SDS011;30184;42.018;23.670;2022-09-13T08:16:53;7.63;;;3.80;;
44480;SDS011;30184;42.018;23.670;2022-09-13T08:19:23;19.48;;;4.97;;
44480;SDS011;30184;42.018;23.670;2022-09-13T08:21:54;7.03;;;3.30;;
44480;SDS011;30184;42.018;23.670;2022-09-13T08:24:25;11.77;;;3.72;;
44480;SDS011;30184;42.018;23.670;2022-09-13T08:26:54;9.80;;;3.58;;
44480;SDS011;30184;42.018;23.670;2022-09-13T08:29:23;7.43;;;3.67;;
44480;SDS011;30184;42.018;23.670;2022-09-13T08:31:52;3.92;;;3.22;;
44480;SDS011;30184;42.018;23.670;2022-09-13T08:34:21;8.55;;;6.05;;
44480;SDS011;30184;42.018;23.670;2022-09-13T08:36:50;19.30;;;4.53;;
44480;SDS011;30184;42.018;23.670;2022-09-13T08:39:20;8.32;;;3.75;;
44480;SDS011;30184;42.018;23.670;2022-09-13T08:41:56;6.95;;;3.40;;
44480;SDS011;30184;42.018;23.670;2022-09-13T08:44:43;8.10;;;3.95;;
44480;SDS011;30184;42.018;23.670;2022-09-13T08:50:05;5.15;;;3.40;;
44480;SDS011;30184;42.018;23.670;2022-09-13T08:52:44;10.75;;;2.97;;
44480;SDS011;30184;42.018;23.670;2022-09-13T08:55:21;4.35;;;2.85;;
44480;SDS011;30184;42.018;23.670;2022-09-13T08:57:58;7.55;;;3.60;;
44480;SDS011;30184;42.018;23.670;2022-09-13T09:00:39;8.40;;;3.08;;
44480;SDS011;30184;42.018;23.670;2022-09-13T09:03:17;3.78;;;2.90;;
44480;SDS011;30184;42.018;23.670;2022-09-13T09:05:51;3.95;;;2.67;;
44480;SDS011;30184;42.018;23.670;2022-09-13T09:08:26;4.05;;;2.50;;
44480;SDS011;30184;42.018;23.670;2022-09-13T09:11:01;6.97;;;3.95;;
44480;SDS011;30184;42.018;23.670;2022-09-13T09:13:39;9.50;;;3.50;;
44480;SDS011;30184;42.018;23.670;2022-09-13T09:16:22;7.22;;;3.78;;
44480;SDS011;30184;42.018;23.670;2022-09-13T09:18:58;5.97;;;3.72;;
44480;SDS011;30184;42.018;23.670;2022-09-13T09:21:35;3.80;;;2.80;;
44480;SDS011;30184;42.018;23.670;2022-09-13T09:24:04;3.05;;;2.10;;
44480;SDS011;30184;42.018;23.670;2022-09-13T09:26:35;5.30;;;2.20;;
44480;SDS011;30184;42.018;23.670;2022-09-13T09:29:09;5.03;;;3.10;;
44480;SDS011;30184;42.018;23.670;2022-09-13T09:31:52;4.82;;;2.00;;
44480;SDS011;30184;42.018;23.670;2022-09-13T09:34:30;3.45;;;2.50;;
44480;SDS011;30184;42.018;23.670;2022-09-13T09:37:12;3.50;;;2.53;;
44480;SDS011;30184;42.018;23.670;2022-09-13T09:39:47;5.70;;;2.22;;
44480;SDS011;30184;42.018;23.670;2022-09-13T09:42:17;8.60;;;2.55;;
44480;SDS011;30184;42.018;23.670;2022-09-13T09:44:52;2.85;;;2.10;;
44480;SDS011;30184;42.018;23.670;2022-09-13T09:47:25;4.85;;;2.65;;
44480;SDS011;30184;42.018;23.670;2022-09-13T09:49:58;3.22;;;2.30;;
44480;SDS011;30184;42.018;23.670;2022-09-13T09:52:38;6.28;;;2.22;;
44480;SDS011;30184;42.018;23.670;2022-09-13T09:55:24;3.03;;;2.10;;
44480;SDS011;30184;42.018;23.670;2022-09-13T09:57:56;2.92;;;1.77;;
44480;SDS011;30184;42.018;23.670;2022-09-13T10:00:30;3.30;;;1.67;;
44480;SDS011;30184;42.018;23.670;2022-09-13T10:03:02;5.07;;;2.05;;
44480;SDS011;30184;42.018;23.670;2022-09-13T10:05:35;11.18;;;4.57;;
44480;SDS011;30184;42.018;23.670;2022-09-13T10:08:04;5.63;;;2.72;;
44480;SDS011;30184;42.018;23.670;2022-09-13T10:10:35;3.58;;;2.47;;
44480;SDS011;30184;42.018;23.670;2022-09-13T10:13:12;5.35;;;2.60;;
44480;SDS011;30184;42.018;23.670;2022-09-13T10:15:54;3.92;;;2.58;;
44480;SDS011;30184;42.018;23.670;2022-09-13T10:18:26;2.88;;;1.70;;
44480;SDS011;30184;42.018;23.670;2022-09-13T10:21:20;2.87;;;2.03;;
44480;SDS011;30184;42.018;23.670;2022-09-13T10:23:52;20.95;;;3.13;;
44480;SDS011;30184;42.018;23.670;2022-09-13T10:26:45;3.70;;;2.05;;
44480;SDS011;30184;42.018;23.670;2022-09-13T10:29:15;7.60;;;3.72;;
44480;SDS011;30184;42.018;23.670;2022-09-13T10:31:47;3.45;;;2.28;;
44480;SDS011;30184;42.018;23.670;2022-09-13T10:34:20;3.13;;;2.17;;
44480;SDS011;30184;42.018;23.670;2022-09-13T10:36:53;3.30;;;2.08;;
44480;SDS011;30184;42.018;23.670;2022-09-13T10:39:26;9.73;;;2.38;;
44480;SDS011;30184;42.018;23.670;2022-09-13T10:41:58;4.90;;;2.00;;
44480;SDS011;30184;42.018;23.670;2022-09-13T10:44:32;4.25;;;2.30;;
44480;SDS011;30184;42.018;23.670;2022-09-13T10:47:10;6.03;;;2.30;;
44480;SDS011;30184;42.018;23.670;2022-09-13T10:49:43;5.85;;;1.95;;
44480;SDS011;30184;42.018;23.670;2022-09-13T10:52:31;2.70;;;1.70;;
44480;SDS011;30184;42.018;23.670;2022-09-13T10:57:55;3.22;;;1.85;;
44480;SDS011;30184;42.018;23.670;2022-09-13T11:00:46;2.30;;;1.67;;
44480;SDS011;30184;42.018;23.670;2022-09-13T11:03:37;5.05;;;2.10;;
44480;SDS011;30184;42.018;23.670;2022-09-13T11:06:19;2.28;;;1.60;;
44480;SDS011;30184;42.018;23.670;2022-09-13T11:08:59;8.63;;;2.17;;
44480;SDS011;30184;42.018;23.670;2022-09-13T11:11:39;3.75;;;2.20;;
44480;SDS011;30184;42.018;23.670;2022-09-13T11:14:16;4.68;;;2.38;;
44480;SDS011;30184;42.018;23.670;2022-09-13T11:17:01;3.55;;;1.92;;
44480;SDS011;30184;42.018;23.670;2022-09-13T11:19:50;4.95;;;2.20;;
44480;SDS011;30184;42.018;23.670;2022-09-13T11:22:36;2.92;;;1.85;;
44480;SDS011;30184;42.018;23.670;2022-09-13T11:25:15;3.08;;;2.10;;
44480;SDS011;30184;42.018;23.670;2022-09-13T11:27:58;4.43;;;2.75;;
44480;SDS011;30184;42.018;23.670;2022-09-13T11:30:33;6.20;;;2.45;;
44480;SDS011;30184;42.018;23.670;2022-09-13T11:33:17;582.25;;;32.95;;
44480;SDS011;30184;42.018;23.670;2022-09-13T11:38:55;146.05;;;10.65;;
44480;SDS011;30184;42.018;23.670;2022-09-13T11:41:33;486.73;;;24.95;;
44480;SDS011;30184;42.018;23.670;2022-09-13T11:47:17;21.10;;;3.15;;
44480;SDS011;30184;42.018;23.670;2022-09-13T11:49:59;47.35;;;3.72;;
44480;SDS011;30184;42.018;23.670;2022-09-13T11:52:47;110.68;;;7.53;;
44480;SDS011;30184;42.018;23.670;2022-09-13T11:55:25;12.43;;;2.67;;
44480;SDS011;30184;42.018;23.670;2022-09-13T11:57:58;4.25;;;2.42;;
44480;SDS011;30184;42.018;23.670;2022-09-13T12:00:32;7.38;;;2.88;;
44480;SDS011;30184;42.018;23.670;2022-09-13T12:03:10;2.77;;;2.00;;
44480;SDS011;30184;42.018;23.670;2022-09-13T12:05:46;4.18;;;3.10;;
44480;SDS011;30184;42.018;23.670;2022-09-13T12:08:21;3.90;;;2.53;;
44480;SDS011;30184;42.018;23.670;2022-09-13T12:10:54;3.30;;;2.13;;
44480;SDS011;30184;42.018;23.670;2022-09-13T12:13:25;4.45;;;2.22;;
44480;SDS011;30184;42.018;23.670;2022-09-13T12:15:58;3.30;;;2.28;;
44480;SDS011;30184;42.018;23.670;2022-09-13T12:18:29;7.50;;;2.33;;
44480;SDS011;30184;42.018;23.670;2022-09-13T12:21:04;3.42;;;2.33;;
44480;SDS011;30184;42.018;23.670;2022-09-13T12:23:40;4.28;;;2.25;;
44480;SDS011;30184;42.018;23.670;2022-09-13T12:26:14;3.97;;;2.20;;
44480;SDS011;30184;42.018;23.670;2022-09-13T12:28:50;3.90;;;2.40;;
44480;SDS011;30184;42.018;23.670;2022-09-13T12:31:25;3.50;;;2.60;;
44480;SDS011;30184;42.018;23.670;2022-09-13T12:33:55;4.20;;;2.70;;
44480;SDS011;30184;42.018;23.670;2022-09-13T12:36:31;5.40;;;2.67;;
44480;SDS011;30184;42.018;23.670;2022-09-13T12:39:35;5.25;;;2.42;;
44480;SDS011;30184;42.018;23.670;2022-09-13T12:42:22;9.40;;;2.72;;
44480;SDS011;30184;42.018;23.670;2022-09-13T12:45:20;5.20;;;2.28;;
44480;SDS011;30184;42.018;23.670;2022-09-13T12:48:14;9.55;;;2.30;;
44480;SDS011;30184;42.018;23.670;2022-09-13T12:56:55;5.38;;;2.25;;
44480;SDS011;30184;42.018;23.670;2022-09-13T12:59:57;3.70;;;2.33;;
44480;SDS011;30184;42.018;23.670;2022-09-13T13:02:37;3.55;;;1.98;;
44480;SDS011;30184;42.018;23.670;2022-09-13T13:05:20;3.50;;;2.53;;
44480;SDS011;30184;42.018;23.670;2022-09-13T13:07:55;5.50;;;2.45;;
44480;SDS011;30184;42.018;23.670;2022-09-13T13:10:30;4.75;;;2.58;;
44480;SDS011;30184;42.018;23.670;2022-09-13T13:13:13;3.50;;;2.20;;
44480;SDS011;30184;42.018;23.670;2022-09-13T13:16:02;4.35;;;2.45;;
44480;SDS011;30184;42.018;23.670;2022-09-13T13:18:42;3.65;;;2.22;;
44480;SDS011;30184;42.018;23.670;2022-09-13T13:21:23;6.72;;;2.85;;
44480;SDS011;30184;42.018;23.670;2022-09-13T13:30:37;7.40;;;2.65;;
44480;SDS011;30184;42.018;23.670;2022-09-13T13:33:14;5.00;;;2.60;;
44480;SDS011;30184;42.018;23.670;2022-09-13T13:35:53;3.50;;;2.10;;
44480;SDS011;30184;42.018;23.670;2022-09-13T13:38:39;3.28;;;2.10;;
44480;SDS011;30184;42.018;23.670;2022-09-13T13:50:21;3.90;;;2.30;;
44480;SDS011;30184;42.018;23.670;2022-09-13T13:52:52;3.33;;;1.88;;
44480;SDS011;30184;42.018;23.670;2022-09-13T13:55:27;3.15;;;2.00;;
44480;SDS011;30184;42.018;23.670;2022-09-13T13:58:00;3.90;;;2.20;;
44480;SDS011;30184;42.018;23.670;2022-09-13T14:00:33;3.15;;;2.10;;
44480;SDS011;30184;42.018;23.670;2022-09-13T14:03:09;6.10;;;1.80;;
44480;SDS011;30184;42.018;23.670;2022-09-13T14:05:50;22.95;;;2.63;;
44480;SDS011;30184;42.018;23.670;2022-09-13T14:08:27;2.10;;;1.50;;
44480;SDS011;30184;42.018;23.670;2022-09-13T14:11:09;4.95;;;1.83;;
44480;SDS011;30184;42.018;23.670;2022-09-13T14:13:51;5.07;;;1.52;;
44480;SDS011;30184;42.018;23.670;2022-09-13T14:16:32;3.97;;;1.95;;
44480;SDS011;30184;42.018;23.670;2022-09-13T14:19:22;3.30;;;1.80;;
44480;SDS011;30184;42.018;23.670;2022-09-13T14:22:14;3.58;;;1.80;;
44480;SDS011;30184;42.018;23.670;2022-09-13T14:24:46;2.70;;;1.48;;
44480;SDS011;30184;42.018;23.670;2022-09-13T14:27:18;6.72;;;1.98;;
44480;SDS011;30184;42.018;23.670;2022-09-13T14:29:49;5.97;;;1.92;;
44480;SDS011;30184;42.018;23.670;2022-09-13T14:32:21;4.25;;;2.33;;
44480;SDS011;30184;42.018;23.670;2022-09-13T14:34:54;3.30;;;1.90;;
44480;SDS011;30184;42.018;23.670;2022-09-13T14:37:29;3.53;;;1.95;;
44480;SDS011;30184;42.018;23.670;2022-09-13T14:40:05;8.10;;;3.97;;
44480;SDS011;30184;42.018;23.670;2022-09-13T14:42:44;5.68;;;2.53;;
44480;SDS011;30184;42.018;23.670;2022-09-13T14:45:15;3.83;;;2.33;;
44480;SDS011;30184;42.018;23.670;2022-09-13T14:47:48;8.45;;;3.30;;
44480;SDS011;30184;42.018;23.670;2022-09-13T14:50:24;7.13;;;2.75;;
44480;SDS011;30184;42.018;23.670;2022-09-13T14:52:58;4.57;;;2.53;;
44480;SDS011;30184;42.018;23.670;2022-09-13T14:55:30;4.47;;;3.10;;
44480;SDS011;30184;42.018;23.670;2022-09-13T14:58:05;3.72;;;2.38;;
44480;SDS011;30184;42.018;23.670;2022-09-13T15:00:44;4.57;;;2.53;;
44480;SDS011;30184;42.018;23.670;2022-09-13T15:03:18;3.53;;;1.73;;
44480;SDS011;30184;42.018;23.670;2022-09-13T15:05:54;9.57;;;3.47;;
44480;SDS011;30184;42.018;23.670;2022-09-13T15:08:25;4.28;;;2.05;;
44480;SDS011;30184;42.018;23.670;2022-09-13T15:11:03;4.85;;;1.90;;
44480;SDS011;30184;42.018;23.670;2022-09-13T15:13:34;4.93;;;2.13;;
44480;SDS011;30184;42.018;23.670;2022-09-13T15:21:44;5.93;;;2.38;;
44480;SDS011;30184;42.018;23.670;2022-09-13T15:24:17;4.20;;;2.90;;
44480;SDS011;30184;42.018;23.670;2022-09-13T15:26:59;6.57;;;2.90;;
44480;SDS011;30184;42.018;23.670;2022-09-13T15:29:31;5.03;;;2.70;;
44480;SDS011;30184;42.018;23.670;2022-09-13T15:32:03;10.10;;;2.67;;
44480;SDS011;30184;42.018;23.670;2022-09-13T15:34:34;4.88;;;2.05;;
44480;SDS011;30184;42.018;23.670;2022-09-13T15:37:14;5.65;;;1.90;;
44480;SDS011;30184;42.018;23.670;2022-09-13T15:39:46;4.20;;;1.83;;
44480;SDS011;30184;42.018;23.670;2022-09-13T15:42:16;4.10;;;2.80;;
44480;SDS011;30184;42.018;23.670;2022-09-13T15:44:45;4.75;;;2.55;;
44480;SDS011;30184;42.018;23.670;2022-09-13T15:47:15;2.70;;;1.60;;
44480;SDS011;30184;42.018;23.670;2022-09-13T15:49:46;3.50;;;2.00;;
44480;SDS011;30184;42.018;23.670;2022-09-13T15:52:19;6.68;;;2.00;;
44480;SDS011;30184;42.018;23.670;2022-09-13T15:54:49;9.63;;;4.85;;